Capitol Logistics 1137


EBLG
Liège Airport
Liege, BE
EDDW
Neuenland Airport
Bremen, DE

Activity Log

Date Flight Route Aircraft Duration
09/03/2020 CPX1137 Not Available B738 0h 59m
11/05/2019 CPX737 Not Available B738 0h 50m
10/27/2019 CPX737 N0423F310 LNO7S LNO UM170 BASUM T820 PIXUR PIXU3P B738 0h 53m
10/12/2019 CPX737 EBLG LNO7S LNO UM170 NVO BASUM T820 PIXUR PIXU3P EDDW B738 0h 56m

Route Details

Aircraft Information
Primary: Boeing 737-800BCF
Backup: Not Available
Route Data
Distance: 190nm
Sched. Duration: 0h 45m
Avg. Duration: 0h 54m (+10m)
Times Flown: 4
Recm'd Route: Not Available
Planned Altitude: 25,000ft
Origin Wx: EBLG 291250Z 23011KT 9999 -RA SCT014 BKN021 11/09 Q1018 NOSIG
Dest. Wx: EDDW 291250Z 25013KT 9999 SCT025 BKN046 12/07 Q1013 TEMPO 26015G25KT
Notes:

Financial History
Total Freight: 122,496lbs
Average Load: 30,624lbs/flt
Fuel Used: 19,420lbs
Avg. Fuel Used: 4,855lbs/flt
Fuel Expense: $21,556
Avg. Fuel Expense: $5,389
Avg. Fuel Cost: $1.11/lbs
Total Gross Income: $253,862
Pilot Pay: $926
Total Expenses: $27,625
Total Revenue: $203,925
Average Revenue: $63,465.60